Flight Track Log - Related Links

Times and Time Zones

All times are in EDT time to prevent confusion due to time zone crossing. See the ASQ6151 flight status page for this flight to view local times or setup timezone preferences in your user account.

Time Position Orientation Groundspeed Altitude Reporting Facility
EDT Latitude Longitude Course Direction KTS MPH feet Rate Location/Type
Thu 05:57:16 PM 32.1589 -81.3147 285° West 200 230 2,900  Level Jacksonville Center
Thu 05:58:16 PM 32.1992 -81.3753 308° West 239 275 4,700 1,900 Climbing Jacksonville Center
Thu 05:59:16 PM 32.2417 -81.4433 306° West 264 304 6,700 2,100 Climbing Jacksonville Center
Thu 06:00:16 PM 32.2947 -81.5211 309° West 271 312 8,900 1,750 Climbing Jacksonville Center
Thu 06:01:16 PM 32.3456 -81.5942 309° West 287 330 10,200 950 Climbing Jacksonville Center
Thu 06:02:00 PM 32.2391 -81.6007 285° West  Level FlightAware Approximate
Thu 06:02:16 PM 32.3986 -81.6722 309° West 323 372 10,800  Level Jacksonville Center
Thu 06:03:16 PM 32.4664 -81.7697 310° West 343 395 12,100 1,163 Climbing Jacksonville Center
Thu 06:04:56 PM 32.5736 -81.9214 310° West 361 415 13,900 1,088 Climbing Atlanta Center
Thu 06:05:56 PM 32.6378 -82.0136 310° West 366 421 15,000 1,100 Climbing Atlanta Center
Thu 06:06:56 PM 32.7000 -82.1061 309° West 366 421 16,100 1,050 Climbing Atlanta Center
Thu 06:07:56 PM 32.7639 -82.2011 309° West 366 421 17,100 1,000 Climbing Atlanta Center
Thu 06:08:56 PM 32.8281 -82.2936 310° West 366 421 18,100 1,050 Climbing Atlanta Center
Thu 06:09:56 PM 32.9061 -82.3661 322° Northwest 361 415 19,200 1,100 Climbing Atlanta Center
Thu 06:10:56 PM 33.0089 -82.3964 346° North 354 407 20,300 1,050 Climbing Atlanta Center
Thu 06:11:56 PM 33.1117 -82.4292 345° North 369 425 21,300 1,050 Climbing Atlanta Center
Thu 06:12:56 PM 33.2164 -82.4619 345° North 375 432 22,400 1,100 Climbing Atlanta Center
Thu 06:13:56 PM 33.3169 -82.4950 345° North 380 437 23,500 1,100 Climbing Atlanta Center
Thu 06:14:56 PM 33.4300 -82.5281 346° North 390 449 24,600 1,100 Climbing Atlanta Center
Thu 06:15:56 PM 33.5306 -82.5611 345° North 390 449 25,700 1,100 Climbing Atlanta Center
Thu 06:16:56 PM 33.6292 -82.5942 344° North 379 436 26,800 1,050 Climbing Atlanta Center
Thu 06:17:56 PM 33.7319 -82.6250 346° North 372 428 27,800 1,050 Climbing Atlanta Center
Thu 06:18:56 PM 33.8325 -82.6583 345° North 372 428 28,900 1,100 Climbing Atlanta Center
Thu 06:19:56 PM 33.9308 -82.6869 346° North 370 426 30,000 1,050 Climbing Atlanta Center
Thu 06:20:56 PM 34.0292 -82.7203 344° North 357 411 31,000 950 Climbing Atlanta Center
Thu 06:21:56 PM 34.1217 -82.7667 337° Northwest 356 410 31,900 900 Climbing Atlanta Center
Thu 06:22:56 PM 34.2078 -82.8256 331° Northwest 350 403 32,800 900 Climbing Atlanta Center
Thu 06:23:56 PM 34.2981 -82.8847 332° Northwest 355 409 33,700 850 Climbing Atlanta Center
Thu 06:24:56 PM 34.3864 -82.9414 332° Northwest 364 419 34,500 800 Climbing Atlanta Center
Thu 06:25:56 PM 34.4722 -82.9731 343° North 356 410 35,300 750 Climbing Atlanta Center
Thu 06:26:56 PM 34.5725 -83.0044 346° North 361 415 36,000 350 Climbing Atlanta Center
Thu 06:27:56 PM 34.6731 -83.0336 347° North 371 427 36,000  Level Atlanta Center
Thu 06:28:56 PM 34.7797 -83.0678 345° North 376 433 36,000  Level Atlanta Center
Thu 06:29:56 PM 34.8925 -83.0867 352° North 402 463 36,000  Level Atlanta Center
Thu 06:30:56 PM 35.0200 -83.1028 354° North 412 474 36,000  Level Atlanta Center
Thu 06:31:56 PM 35.1369 -83.1092 357° North 418 481 36,000  Level Atlanta Center
Thu 06:32:56 PM 35.2433 -83.1131 358° North 419 482 36,000  Level Atlanta Center
Thu 06:33:56 PM 35.3603 -83.1244 355° North 419 482 36,000  Level Atlanta Center
Thu 06:34:56 PM 35.4731 -83.1642 344° North 420 483 36,000  Level Atlanta Center
Thu 06:35:56 PM 35.5861 -83.2036 344° North 420 483 36,000  Level Atlanta Center
Thu 06:36:56 PM 35.7011 -83.2486 342° North 426 490 36,000  Level Atlanta Center
Thu 06:37:56 PM 35.8017 -83.3219 329° Northwest 421 484 36,000  Level Atlanta Center
Thu 06:38:56 PM 35.9064 -83.3850 334° Northwest 415 478 36,000  Level Atlanta Center
Thu 06:39:56 PM 36.0275 -83.4250 345° North 410 472 36,000  Level Atlanta Center
Thu 06:40:56 PM 36.1425 -83.4603 346° North 410 472 36,000  Level Atlanta Center
Thu 06:41:56 PM 36.2553 -83.5006 344° North 420 483 36,000  Level Atlanta Center
Thu 06:42:56 PM 36.3658 -83.5358 346° North 415 478 36,000  Level Atlanta Center
Thu 06:43:15 PM 36.4006 -83.5439 349° North 412 474 36,000  Level Indianapolis Center
Thu 06:44:17 PM 36.5139 -83.5819 345° North 417 480 36,000  Level Indianapolis Center
Thu 06:45:19 PM 36.6286 -83.6194 345° North 420 483 36,000  Level Indianapolis Center
Thu 06:46:21 PM 36.7422 -83.6572 345° North 419 482 36,000  Level Indianapolis Center
Thu 06:47:23 PM 36.8569 -83.6958 345° North 422 486 36,000  Level Indianapolis Center
Thu 06:48:25 PM 36.9889 -83.7389 345° North 418 481 36,000  Level Indianapolis Center
Thu 06:49:27 PM 37.1033 -83.7783 345° North 422 486 36,000  Level Indianapolis Center
Thu 06:50:29 PM 37.2200 -83.8183 345° North 428 493 36,000  Level Indianapolis Center
Thu 06:51:31 PM 37.3342 -83.8564 345° North 425 489 36,000  Level Indianapolis Center
Thu 06:52:33 PM 37.4494 -83.8950 345° North 425 489 36,000  Level Indianapolis Center
Thu 06:53:35 PM 37.5650 -83.9339 345° North 428 493 36,000  Level Indianapolis Center
Thu 06:54:37 PM 37.6986 -83.9892 342° North 428 493 36,000  Level Indianapolis Center
Thu 06:55:39 PM 37.8081 -84.0522 336° Northwest 433 498 36,000  Level Indianapolis Center
Thu 06:56:41 PM 37.9178 -84.1161 335° Northwest 433 498 36,000  Level Indianapolis Center
Thu 06:57:43 PM 38.0258 -84.1794 335° Northwest 427 491 36,000  Level Indianapolis Center
Thu 06:58:45 PM 38.1344 -84.2439 335° Northwest 430 495 36,000  Level Indianapolis Center
Thu 06:59:47 PM 38.2444 -84.3083 335° Northwest 434 499 36,000  Level Indianapolis Center
Thu 07:00:49 PM 38.3717 -84.3833 335° Northwest 432 497 36,000  Level Indianapolis Center
Thu 07:01:51 PM 38.4808 -84.4467 336° Northwest 430 495 36,000  Level Indianapolis Center
Thu 07:02:53 PM 38.5900 -84.5108 335° Northwest 428 493 36,000  Level Indianapolis Center
Thu 07:03:55 PM 38.6981 -84.5775 334° Northwest 424 488 36,000 -339 Level Indianapolis Center
Thu 07:04:57 PM 38.8047 -84.6400 335° Northwest 425 489 35,300 -871 Descending Indianapolis Center
Thu 07:05:59 PM 38.9250 -84.7119 335° Northwest 432 497 34,200 -1,016 Descending Indianapolis Center
Thu 07:07:01 PM 39.0364 -84.7803 335° Northwest 438 504 33,200 -1,355 Descending Indianapolis Center
Thu 07:08:03 PM 39.1456 -84.8464 335° Northwest 434 499 31,400 -1,839 Descending Indianapolis Center
Thu 07:09:05 PM 39.2600 -84.9153 335° Northwest 429 494 29,400 -1,452 Descending Indianapolis Center
Thu 07:10:07 PM 39.3692 -84.9819 335° Northwest 433 498 28,400 -677 Descending Indianapolis Center
Thu 07:11:09 PM 39.4792 -85.0483 335° Northwest 438 504 28,000 -194 Descending Indianapolis Center
Thu 07:12:11 PM 39.5881 -85.1156 335° Northwest 438 504 28,000  Level Indianapolis Center
Thu 07:13:13 PM 39.6958 -85.1808 335° Northwest 435 501 28,000  Level Indianapolis Center
Thu 07:14:15 PM 39.8247 -85.2611 334° Northwest 432 497 28,000  Level Indianapolis Center
Thu 07:15:17 PM 39.9319 -85.3278 335° Northwest 430 495 28,000  Level Indianapolis Center
Thu 07:16:18 PM 40.0406 -85.3950 335° Northwest 434 499 28,000 -195 Level Indianapolis Center
Thu 07:17:20 PM 40.1483 -85.4625 334° Northwest 432 497 27,600 -978 Descending Indianapolis Center
Thu 07:17:50 PM 40.2119 -85.5017 335° Northwest 432 497 26,500 -1,957 Descending Chicago Center
Thu 07:18:52 PM 40.3200 -85.5703 334° Northwest 434 499 24,600 -1,200 Descending Chicago Center
Thu 07:19:55 PM 40.4022 -85.6794 315° West 425 489 24,000 -288 Descending Chicago Center
Thu 07:20:57 PM 40.4778 -85.7950 311° West 423 487 24,000  Level Chicago Center
Thu 07:21:59 PM 40.5692 -85.9358 311° West 424 488 24,000 -97 Level Chicago Center
Thu 07:23:01 PM 40.6453 -86.0556 310° West 426 490 23,800 -435 Descending Chicago Center
Thu 07:24:03 PM 40.7186 -86.1711 310° West 425 489 23,100 -387 Descending Chicago Center
Thu 07:25:05 PM 40.7953 -86.2889 311° West 424 488 23,000 -48 Descending Chicago Center
Thu 07:26:07 PM 40.8697 -86.4061 310° West 420 483 23,000  Level Chicago Center
Thu 07:27:09 PM 40.9575 -86.5475 309° West 416 479 23,000  Level Chicago Center
Thu 07:28:11 PM 41.0322 -86.6644 310° West 415 478 23,000  Level Chicago Center
Thu 07:29:13 PM 41.1058 -86.7806 310° West 420 483 23,000 -768 Level Chicago Center
Thu 07:30:16 PM 41.1789 -86.8936 311° West 407 468 21,400 -2,304 Descending Chicago Center
Thu 07:31:18 PM 41.2611 -87.0281 309° West 395 455 18,200 -2,565 Descending Chicago Center
Thu 07:32:20 PM 41.3308 -87.1392 310° West 394 453 16,100 -2,135 Descending Chicago Center
Thu 07:33:02 PM 41.3833 -87.2167 312° West 384 442 14,500 -2,353 Descending Chicago TRACON
Thu 07:34:02 PM 41.4500 -87.3000 317° Northwest 362 417 12,100 -1,947 Descending Chicago TRACON
Thu 07:34:56 PM 41.5333 -87.3833 323° Northwest 354 407 10,800 -1,143 Descending Chicago TRACON
Thu 07:35:26 PM 41.5519 -87.4128 310° West 353 406 10,500 -522 Descending Chicago Center
Thu 07:36:28 PM 41.6386 -87.5097 320° Northwest 345 397 10,000 -484 Descending Chicago Center
Thu 07:37:30 PM 41.7006 -87.5789 320° Northwest 292 336 9,500 -726 Descending Chicago Center
Thu 07:38:32 PM 41.7603 -87.6461 320° Northwest 284 327 8,500 -1,034 Descending Chicago Center
Thu 07:38:57 PM 41.7833 -87.6833 310° West 285 328 8,000 -847 Descending Chicago TRACON
Thu 07:39:57 PM 41.8333 -87.7500 315° West 243 280 7,300 -500 Descending Chicago TRACON
Thu 07:40:57 PM 41.8333 -87.8333 270° West 198 228 7,000 -500 Descending Chicago TRACON
Thu 07:41:57 PM 41.8000 -87.8833 228° Southwest 184 212 6,300 -808 Descending Chicago TRACON
Thu 07:42:41 PM 41.7878 -87.9225 247° West 184 212 5,600 -906 Descending Chicago Center
Thu 07:43:43 PM 41.7650 -87.9789 242° Southwest 195 224 4,700 -774 Descending Chicago Center
Thu 07:44:45 PM 41.7944 -88.0356 305° West 192 221 4,000 -677 Descending Chicago Center
Thu 07:45:47 PM 41.8558 -88.0181 12° North 191 220 3,300 -823 Descending Chicago Center
Thu 07:46:49 PM 41.8914 -87.9747 42° Northeast 180 207 2,300 -871 Descending Chicago Center
Thu 07:47:51 PM 41.9239 -87.9358 42° Northeast 168 193 1,500 -532 Descending Chicago Center
Thu 07:48:53 PM 41.9508 -87.9022 43° Northeast 162 186 1,200 -290 Descending Chicago Center
Thu 07:50:00 PM 41.9667 -87.9000 18° North  Level FlightAware Approximate

Login

Don't have an account? Register now (free) for customized features, flight alerts, and more!